sensor_id;sensor_type;location;lat;lon;timestamp;pressure;altitude;pressure_sealevel;temperature;humidity
15634;BME280;14654;48.898;8.308;2022-10-18T00:01:29;101119.50;;;14.43;100.00
15634;BME280;14654;48.898;8.308;2022-10-18T00:03:54;101129.06;;;14.44;100.00
15634;BME280;14654;48.898;8.308;2022-10-18T00:06:19;101133.38;;;14.45;100.00
15634;BME280;14654;48.898;8.308;2022-10-18T00:08:45;101131.63;;;14.47;100.00
15634;BME280;14654;48.898;8.308;2022-10-18T00:11:10;101126.38;;;14.49;100.00
15634;BME280;14654;48.898;8.308;2022-10-18T00:13:36;101121.19;;;14.51;100.00
15634;BME280;14654;48.898;8.308;2022-10-18T00:16:03;101123.72;;;14.54;100.00
15634;BME280;14654;48.898;8.308;2022-10-18T00:18:28;101133.28;;;14.56;100.00
15634;BME280;14654;48.898;8.308;2022-10-18T00:21:06;101131.47;;;14.60;100.00
15634;BME280;14654;48.898;8.308;2022-10-18T00:23:32;101126.25;;;14.61;100.00
15634;BME280;14654;48.898;8.308;2022-10-18T00:26:17;101127.09;;;14.63;100.00
15634;BME280;14654;48.898;8.308;2022-10-18T00:28:43;101132.28;;;14.65;100.00
15634;BME280;14654;48.898;8.308;2022-10-18T00:31:11;101134.88;;;14.67;100.00
15634;BME280;14654;48.898;8.308;2022-10-18T00:33:37;101129.66;;;14.68;100.00
15634;BME280;14654;48.898;8.308;2022-10-18T00:36:03;101127.06;;;14.70;100.00
15634;BME280;14654;48.898;8.308;2022-10-18T00:38:28;101128.75;;;14.72;100.00
15634;BME280;14654;48.898;8.308;2022-10-18T00:40:54;101130.44;;;14.76;100.00
15634;BME280;14654;48.898;8.308;2022-10-18T00:43:19;101126.91;;;14.81;100.00
15634;BME280;14654;48.898;8.308;2022-10-18T00:45:44;101126.03;;;14.82;100.00
15634;BME280;14654;48.898;8.308;2022-10-18T00:48:12;101123.41;;;14.83;100.00
15634;BME280;14654;48.898;8.308;2022-10-18T00:50:40;101121.66;;;14.85;100.00
15634;BME280;14654;48.898;8.308;2022-10-18T00:53:11;101133.78;;;14.86;100.00
15634;BME280;14654;48.898;8.308;2022-10-18T00:55:39;101121.63;;;14.87;100.00
15634;BME280;14654;48.898;8.308;2022-10-18T00:58:05;101119.00;;;14.88;100.00
15634;BME280;14654;48.898;8.308;2022-10-18T01:00:31;101128.53;;;14.89;100.00
15634;BME280;14654;48.898;8.308;2022-10-18T01:02:57;101137.19;;;14.91;100.00
15634;BME280;14654;48.898;8.308;2022-10-18T01:05:24;101133.69;;;14.94;100.00
15634;BME280;14654;48.898;8.308;2022-10-18T01:13:05;101130.97;;;15.00;100.00
15634;BME280;14654;48.898;8.308;2022-10-18T01:18:31;101127.47;;;15.04;100.00
15634;BME280;14654;48.898;8.308;2022-10-18T01:21:13;101122.22;;;15.06;100.00
15634;BME280;14654;48.898;8.308;2022-10-18T01:32:21;101110.91;;;15.08;100.00
15634;BME280;14654;48.898;8.308;2022-10-18T01:34:51;101110.91;;;15.07;100.00
15634;BME280;14654;48.898;8.308;2022-10-18T01:37:20;101107.47;;;15.05;100.00
15634;BME280;14654;48.898;8.308;2022-10-18T01:39:47;101113.56;;;15.04;100.00
15634;BME280;14654;48.898;8.308;2022-10-18T01:42:16;101107.53;;;15.02;100.00
15634;BME280;14654;48.898;8.308;2022-10-18T01:44:44;101104.06;;;14.98;100.00
15634;BME280;14654;48.898;8.308;2022-10-18T01:47:12;101106.75;;;14.95;100.00
15634;BME280;14654;48.898;8.308;2022-10-18T01:49:38;101100.69;;;14.93;100.00
15634;BME280;14654;48.898;8.308;2022-10-18T01:52:04;101102.41;;;14.92;100.00
15634;BME280;14654;48.898;8.308;2022-10-18T01:54:36;101093.75;;;14.92;100.00
15634;BME280;14654;48.898;8.308;2022-10-18T01:57:17;101099.84;;;14.91;100.00
15634;BME280;14654;48.898;8.308;2022-10-18T02:00:03;101092.06;;;14.89;100.00
15634;BME280;14654;48.898;8.308;2022-10-18T02:05:20;101095.56;;;14.88;100.00
15634;BME280;14654;48.898;8.308;2022-10-18T02:08:17;101100.78;;;14.85;100.00
15634;BME280;14654;48.898;8.308;2022-10-18T02:10:51;101086.88;;;14.85;100.00
15634;BME280;14654;48.898;8.308;2022-10-18T02:13:20;101092.97;;;14.84;100.00
15634;BME280;14654;48.898;8.308;2022-10-18T02:15:49;101093.84;;;14.84;100.00
15634;BME280;14654;48.898;8.308;2022-10-18T02:18:37;101079.94;;;14.84;100.00
15634;BME280;14654;48.898;8.308;2022-10-18T02:21:04;101082.56;;;14.84;100.00
15634;BME280;14654;48.898;8.308;2022-10-18T02:23:32;101071.31;;;14.82;100.00
15634;BME280;14654;48.898;8.308;2022-10-18T02:25:59;101072.16;;;14.82;100.00
15634;BME280;14654;48.898;8.308;2022-10-18T02:28:25;101075.63;;;14.84;100.00
15634;BME280;14654;48.898;8.308;2022-10-18T02:30:58;101072.97;;;14.86;100.00
15634;BME280;14654;48.898;8.308;2022-10-18T02:34:13;101072.97;;;14.86;100.00
15634;BME280;14654;48.898;8.308;2022-10-18T02:36:45;101061.72;;;14.85;100.00
15634;BME280;14654;48.898;8.308;2022-10-18T02:39:14;101062.63;;;14.81;100.00
15634;BME280;14654;48.898;8.308;2022-10-18T02:41:41;101057.50;;;14.75;100.00
15634;BME280;14654;48.898;8.308;2022-10-18T02:44:08;101062.78;;;14.70;100.00
15634;BME280;14654;48.898;8.308;2022-10-18T02:46:33;101069.78;;;14.65;100.00
15634;BME280;14654;48.898;8.308;2022-10-18T02:48:59;101059.38;;;14.60;100.00
15634;BME280;14654;48.898;8.308;2022-10-18T02:51:24;101063.78;;;14.57;100.00
15634;BME280;14654;48.898;8.308;2022-10-18T02:53:49;101071.66;;;14.52;100.00
15634;BME280;14654;48.898;8.308;2022-10-18T02:56:15;101067.41;;;14.46;100.00
15634;BME280;14654;48.898;8.308;2022-10-18T02:58:40;101076.16;;;14.41;100.00
15634;BME280;14654;48.898;8.308;2022-10-18T03:01:06;101069.25;;;14.37;100.00
15634;BME280;14654;48.898;8.308;2022-10-18T03:03:31;101068.44;;;14.31;100.00
15634;BME280;14654;48.898;8.308;2022-10-18T03:05:56;101073.72;;;14.28;100.00
15634;BME280;14654;48.898;8.308;2022-10-18T03:08:22;101076.31;;;14.27;100.00
15634;BME280;14654;48.898;8.308;2022-10-18T03:10:47;101066.81;;;14.23;100.00
15634;BME280;14654;48.898;8.308;2022-10-18T03:13:13;101065.13;;;14.17;100.00
15634;BME280;14654;48.898;8.308;2022-10-18T03:15:38;101062.59;;;14.14;100.00
15634;BME280;14654;48.898;8.308;2022-10-18T03:18:03;101082.56;;;14.12;100.00
15634;BME280;14654;48.898;8.308;2022-10-18T03:20:29;101074.78;;;14.09;100.00
15634;BME280;14654;48.898;8.308;2022-10-18T03:22:55;101079.13;;;14.07;100.00
15634;BME280;14654;48.898;8.308;2022-10-18T03:25:20;101082.66;;;14.04;100.00
15634;BME280;14654;48.898;8.308;2022-10-18T03:27:45;101088.72;;;14.01;100.00
15634;BME280;14654;48.898;8.308;2022-10-18T03:30:11;101099.16;;;14.00;100.00
15634;BME280;14654;48.898;8.308;2022-10-18T03:32:37;101101.78;;;13.97;100.00
15634;BME280;14654;48.898;8.308;2022-10-18T03:35:04;101096.59;;;13.94;100.00
15634;BME280;14654;48.898;8.308;2022-10-18T03:37:29;101096.63;;;13.92;100.00
15634;BME280;14654;48.898;8.308;2022-10-18T03:39:55;101098.34;;;13.96;100.00
15634;BME280;14654;48.898;8.308;2022-10-18T03:42:20;101098.31;;;13.98;100.00
15634;BME280;14654;48.898;8.308;2022-10-18T03:44:45;101105.22;;;14.02;100.00
15634;BME280;14654;48.898;8.308;2022-10-18T03:47:11;101105.16;;;14.07;100.00
15634;BME280;14654;48.898;8.308;2022-10-18T03:49:36;101108.56;;;14.13;100.00
15634;BME280;14654;48.898;8.308;2022-10-18T03:52:02;101105.03;;;14.19;100.00
15634;BME280;14654;48.898;8.308;2022-10-18T03:54:27;101109.31;;;14.25;100.00
15634;BME280;14654;48.898;8.308;2022-10-18T03:56:52;101116.19;;;14.30;100.00
15634;BME280;14654;48.898;8.308;2022-10-18T03:59:18;101127.41;;;14.36;100.00
15634;BME280;14654;48.898;8.308;2022-10-18T04:01:43;101125.63;;;14.39;100.00
15634;BME280;14654;48.898;8.308;2022-10-18T04:04:08;101124.72;;;14.43;100.00
15634;BME280;14654;48.898;8.308;2022-10-18T04:06:34;101126.41;;;14.46;100.00
15634;BME280;14654;48.898;8.308;2022-10-18T04:08:59;101129.88;;;14.48;100.00
15634;BME280;14654;48.898;8.308;2022-10-18T04:11:24;101134.22;;;14.51;100.00
15634;BME280;14654;48.898;8.308;2022-10-18T04:13:50;101125.47;;;14.53;100.00
15634;BME280;14654;48.898;8.308;2022-10-18T04:16:15;101118.50;;;14.55;100.00
15634;BME280;14654;48.898;8.308;2022-10-18T04:18:41;101122.81;;;14.59;100.00
15634;BME280;14654;48.898;8.308;2022-10-18T04:21:06;101126.25;;;14.63;100.00
15634;BME280;14654;48.898;8.308;2022-10-18T04:23:32;101121.84;;;14.68;100.00
15634;BME280;14654;48.898;8.308;2022-10-18T04:25:57;101127.91;;;14.72;100.00
15634;BME280;14654;48.898;8.308;2022-10-18T04:28:22;101129.56;;;14.76;100.00
15634;BME280;14654;48.898;8.308;2022-10-18T04:30:49;101126.91;;;14.81;100.00
15634;BME280;14654;48.898;8.308;2022-10-18T04:33:15;101132.06;;;14.84;100.00
15634;BME280;14654;48.898;8.308;2022-10-18T04:35:40;101130.31;;;14.86;100.00
15634;BME280;14654;48.898;8.308;2022-10-18T04:38:06;101128.53;;;14.89;100.00
15634;BME280;14654;48.898;8.308;2022-10-18T04:40:31;101128.53;;;14.89;100.00
15634;BME280;14654;48.898;8.308;2022-10-18T04:42:56;101135.44;;;14.90;100.00
15634;BME280;14654;48.898;8.308;2022-10-18T04:45:22;101125.03;;;14.92;100.00
15634;BME280;14654;48.898;8.308;2022-10-18T04:47:47;101131.97;;;14.93;100.00
15634;BME280;14654;48.898;8.308;2022-10-18T04:50:12;101126.72;;;14.94;100.00
15634;BME280;14654;48.898;8.308;2022-10-18T04:52:37;101124.13;;;14.94;100.00
15634;BME280;14654;48.898;8.308;2022-10-18T04:55:03;101130.19;;;14.95;100.00
15634;BME280;14654;48.898;8.308;2022-10-18T04:57:28;101131.06;;;14.96;100.00
15634;BME280;14654;48.898;8.308;2022-10-18T04:59:54;101131.94;;;14.96;100.00
15634;BME280;14654;48.898;8.308;2022-10-18T05:02:19;101128.44;;;14.96;100.00
15634;BME280;14654;48.898;8.308;2022-10-18T05:04:47;101137.16;;;14.94;100.00
15634;BME280;14654;48.898;8.308;2022-10-18T05:07:12;101136.31;;;14.94;100.00
15634;BME280;14654;48.898;8.308;2022-10-18T05:09:38;101134.56;;;14.93;100.00
15634;BME280;14654;48.898;8.308;2022-10-18T05:12:04;101131.09;;;14.92;100.00
15634;BME280;14654;48.898;8.308;2022-10-18T05:14:29;101123.31;;;14.91;100.00
15634;BME280;14654;48.898;8.308;2022-10-18T05:16:54;101130.25;;;14.90;100.00
15634;BME280;14654;48.898;8.308;2022-10-18T05:19:19;101129.41;;;14.90;100.00
15634;BME280;14654;48.898;8.308;2022-10-18T05:21:45;101132.84;;;14.90;100.00
15634;BME280;14654;48.898;8.308;2022-10-18T05:24:11;101126.75;;;14.91;100.00
15634;BME280;14654;48.898;8.308;2022-10-18T05:26:36;101133.66;;;14.96;100.00
15634;BME280;14654;48.898;8.308;2022-10-18T05:29:02;101137.06;;;14.99;100.00
15634;BME280;14654;48.898;8.308;2022-10-18T05:31:27;101133.59;;;15.02;100.00
15634;BME280;14654;48.898;8.308;2022-10-18T05:33:52;101130.94;;;15.05;100.00
15634;BME280;14654;48.898;8.308;2022-10-18T05:36:18;101137.84;;;15.07;100.00
15634;BME280;14654;48.898;8.308;2022-10-18T05:38:43;101136.97;;;15.08;100.00
15634;BME280;14654;48.898;8.308;2022-10-18T05:41:10;101132.56;;;15.12;100.00
15634;BME280;14654;48.898;8.308;2022-10-18T05:43:36;101130.81;;;15.14;100.00
15634;BME280;14654;48.898;8.308;2022-10-18T05:46:02;101132.50;;;15.18;100.00
15634;BME280;14654;48.898;8.308;2022-10-18T05:48:28;101124.59;;;15.21;100.00
15634;BME280;14654;48.898;8.308;2022-10-18T05:50:57;101128.03;;;15.23;100.00
15634;BME280;14654;48.898;8.308;2022-10-18T05:53:22;101120.22;;;15.25;100.00
15634;BME280;14654;48.898;8.308;2022-10-18T05:55:48;101118.47;;;15.27;100.00
15634;BME280;14654;48.898;8.308;2022-10-18T05:58:13;101119.31;;;15.28;100.00
15634;BME280;14654;48.898;8.308;2022-10-18T06:00:38;101115.78;;;15.30;100.00
15634;BME280;14654;48.898;8.308;2022-10-18T06:03:04;101130.53;;;15.31;100.00
15634;BME280;14654;48.898;8.308;2022-10-18T06:05:29;101123.56;;;15.33;100.00
15634;BME280;14654;48.898;8.308;2022-10-18T06:07:55;101124.44;;;15.34;100.00
15634;BME280;14654;48.898;8.308;2022-10-18T06:10:20;101131.34;;;15.36;100.00
15634;BME280;14654;48.898;8.308;2022-10-18T06:12:46;101135.63;;;15.39;100.00
15634;BME280;14654;48.898;8.308;2022-10-18T06:15:11;101130.41;;;15.41;100.00
15634;BME280;14654;48.898;8.308;2022-10-18T06:17:36;101127.78;;;15.42;100.00
15634;BME280;14654;48.898;8.308;2022-10-18T06:20:02;101125.97;;;15.46;100.00
15634;BME280;14654;48.898;8.308;2022-10-18T06:22:27;101132.03;;;15.49;100.00
15634;BME280;14654;48.898;8.308;2022-10-18T06:24:53;101132.84;;;15.51;100.00
15634;BME280;14654;48.898;8.308;2022-10-18T06:27:18;101143.25;;;15.51;100.00
15634;BME280;14654;48.898;8.308;2022-10-18T06:29:43;101152.81;;;15.54;100.00
15634;BME280;14654;48.898;8.308;2022-10-18T06:32:11;101147.56;;;15.57;100.00
15634;BME280;14654;48.898;8.308;2022-10-18T06:34:37;101155.31;;;15.60;100.00
15634;BME280;14654;48.898;8.308;2022-10-18T06:37:02;101160.47;;;15.63;100.00
15634;BME280;14654;48.898;8.308;2022-10-18T06:39:27;101167.38;;;15.66;100.00
15634;BME280;14654;48.898;8.308;2022-10-18T06:41:53;101159.50;;;15.69;100.00
15634;BME280;14654;48.898;8.308;2022-10-18T06:44:22;101160.34;;;15.71;100.00
15634;BME280;14654;48.898;8.308;2022-10-18T06:46:48;101188.13;;;15.74;100.00
15634;BME280;14654;48.898;8.308;2022-10-18T06:49:14;101206.38;;;15.77;100.00
15634;BME280;14654;48.898;8.308;2022-10-18T06:51:40;101203.72;;;15.80;100.00
15634;BME280;14654;48.898;8.308;2022-10-18T06:54:06;101195.88;;;15.80;100.00
15634;BME280;14654;48.898;8.308;2022-10-18T06:56:31;101192.38;;;15.81;100.00
15634;BME280;14654;48.898;8.308;2022-10-18T06:58:57;101198.41;;;15.88;100.00
15634;BME280;14654;48.898;8.308;2022-10-18T07:01:22;101201.72;;;15.96;100.00
15634;BME280;14654;48.898;8.308;2022-10-18T07:03:50;101206.91;;;16.00;100.00
15634;BME280;14654;48.898;8.308;2022-10-18T07:06:17;101197.31;;;16.03;100.00
15634;BME280;14654;48.898;8.308;2022-10-18T07:08:43;101206.81;;;16.05;100.00
15634;BME280;14654;48.898;8.308;2022-10-18T07:11:14;101217.22;;;16.07;100.00
15634;BME280;14654;48.898;8.308;2022-10-18T07:13:40;101218.09;;;16.07;100.00
15634;BME280;14654;48.898;8.308;2022-10-18T07:16:11;101216.28;;;16.11;100.00
15634;BME280;14654;48.898;8.308;2022-10-18T07:18:39;101224.03;;;16.15;100.00
15634;BME280;14654;48.898;8.308;2022-10-18T07:21:07;101233.50;;;16.21;100.00
15634;BME280;14654;48.898;8.308;2022-10-18T07:23:34;101225.63;;;16.24;100.00
15634;BME280;14654;48.898;8.308;2022-10-18T07:26:02;101226.47;;;16.26;100.00
15634;BME280;14654;48.898;8.308;2022-10-18T07:28:28;101229.03;;;16.29;100.00
15634;BME280;14654;48.898;8.308;2022-10-18T07:30:54;101236.00;;;16.29;100.00
15634;BME280;14654;48.898;8.308;2022-10-18T07:33:19;101249.06;;;16.29;100.00
15634;BME280;14654;48.898;8.308;2022-10-18T07:35:45;101255.16;;;16.28;100.00
15634;BME280;14654;48.898;8.308;2022-10-18T07:38:11;101262.09;;;16.29;100.00
15634;BME280;14654;48.898;8.308;2022-10-18T07:40:36;101265.59;;;16.29;100.00
15634;BME280;14654;48.898;8.308;2022-10-18T07:43:02;101266.41;;;16.33;100.00
15634;BME280;14654;48.898;8.308;2022-10-18T07:45:27;101266.28;;;16.41;100.00
15634;BME280;14654;48.898;8.308;2022-10-18T07:47:54;101266.97;;;16.51;100.00
15634;BME280;14654;48.898;8.308;2022-10-18T07:50:20;101268.53;;;16.61;100.00
15634;BME280;14654;48.898;8.308;2022-10-18T07:52:45;101271.00;;;16.69;100.00
15634;BME280;14654;48.898;8.308;2022-10-18T07:55:10;101278.72;;;16.75;100.00
15634;BME280;14654;48.898;8.308;2022-10-18T07:57:35;101278.59;;;16.81;100.00
15634;BME280;14654;48.898;8.308;2022-10-18T08:00:01;101278.50;;;16.87;100.00
15634;BME280;14654;48.898;8.308;2022-10-18T08:02:26;101275.66;;;17.01;100.00
15634;BME280;14654;48.898;8.308;2022-10-18T08:04:52;101266.41;;;17.27;100.00
15634;BME280;14654;48.898;8.308;2022-10-18T08:07:17;101269.94;;;17.64;100.00
15634;BME280;14654;48.898;8.308;2022-10-18T08:09:42;101268.34;;;17.96;100.00
15634;BME280;14654;48.898;8.308;2022-10-18T08:12:07;101271.72;;;18.01;100.00
15634;BME280;14654;48.898;8.308;2022-10-18T08:14:33;101270.97;;;17.94;100.00
15634;BME280;14654;48.898;8.308;2022-10-18T08:16:58;101270.38;;;17.85;100.00
15634;BME280;14654;48.898;8.308;2022-10-18T08:19:23;101266.09;;;17.80;100.00
15634;BME280;14654;48.898;8.308;2022-10-18T08:21:48;101260.84;;;17.80;100.00
15634;BME280;14654;48.898;8.308;2022-10-18T08:24:14;101263.31;;;17.87;100.00
15634;BME280;14654;48.898;8.308;2022-10-18T08:26:39;101267.44;;;17.98;100.00
15634;BME280;14654;48.898;8.308;2022-10-18T08:29:04;101267.81;;;18.18;100.00
15634;BME280;14654;48.898;8.308;2022-10-18T08:31:30;101262.13;;;18.36;100.00
15634;BME280;14654;48.898;8.308;2022-10-18T08:33:55;101261.78;;;18.50;100.00
15634;BME280;14654;48.898;8.308;2022-10-18T08:36:21;101263.38;;;18.56;100.00
15634;BME280;14654;48.898;8.308;2022-10-18T08:38:46;101264.28;;;18.53;100.00
15634;BME280;14654;48.898;8.308;2022-10-18T08:41:36;101264.19;;;18.58;100.00
15634;BME280;14654;48.898;8.308;2022-10-18T08:46:46;101266.91;;;18.53;100.00
15634;BME280;14654;48.898;8.308;2022-10-18T08:51:50;101273.59;;;18.65;100.00
15634;BME280;14654;48.898;8.308;2022-10-18T08:57:20;101277.22;;;18.94;100.00
15634;BME280;14654;48.898;8.308;2022-10-18T08:59:46;101279.81;;;18.96;100.00
15634;BME280;14654;48.898;8.308;2022-10-18T09:02:31;101277.94;;;18.99;100.00
15634;BME280;14654;48.898;8.308;2022-10-18T09:10:20;101286.88;;;19.54;100.00
15634;BME280;14654;48.898;8.308;2022-10-18T09:20:57;101281.81;;;20.31;100.00
15634;BME280;14654;48.898;8.308;2022-10-18T09:26:19;101288.25;;;20.48;100.00
15634;BME280;14654;48.898;8.308;2022-10-18T09:28:57;101288.34;;;20.45;100.00
15634;BME280;14654;48.898;8.308;2022-10-18T09:31:36;101291.00;;;20.43;100.00
15634;BME280;14654;48.898;8.308;2022-10-18T09:34:07;101292.81;;;20.43;100.00
15634;BME280;14654;48.898;8.308;2022-10-18T09:36:37;101294.41;;;20.47;100.00
15634;BME280;14654;48.898;8.308;2022-10-18T09:39:14;101287.13;;;20.55;100.00
15634;BME280;14654;48.898;8.308;2022-10-18T09:41:47;101287.56;;;20.68;100.00
15634;BME280;14654;48.898;8.308;2022-10-18T09:44:22;101297.72;;;20.79;100.00
15634;BME280;14654;48.898;8.308;2022-10-18T09:46:52;101298.41;;;20.84;100.00
15634;BME280;14654;48.898;8.308;2022-10-18T09:49:29;101290.47;;;20.85;100.00
15634;BME280;14654;48.898;8.308;2022-10-18T09:51:58;101287.97;;;20.81;100.00
15634;BME280;14654;48.898;8.308;2022-10-18T09:54:30;101286.97;;;20.85;100.00
15634;BME280;14654;48.898;8.308;2022-10-18T09:57:12;101294.75;;;20.88;100.00
15634;BME280;14654;48.898;8.308;2022-10-18T09:59:47;101293.28;;;21.05;100.00
15634;BME280;14654;48.898;8.308;2022-10-18T10:02:22;101293.22;;;21.06;100.00
15634;BME280;14654;48.898;8.308;2022-10-18T10:04:49;101294.81;;;21.10;100.00
15634;BME280;14654;48.898;8.308;2022-10-18T10:07:35;101294.75;;;21.12;100.00
15634;BME280;14654;48.898;8.308;2022-10-18T10:12:33;101292.81;;;21.17;100.00
15634;BME280;14654;48.898;8.308;2022-10-18T10:15:21;101294.44;;;21.21;100.00
15634;BME280;14654;48.898;8.308;2022-10-18T10:17:57;101287.44;;;21.20;100.00
15634;BME280;14654;48.898;8.308;2022-10-18T10:20:30;101292.09;;;21.13;100.00
15634;BME280;14654;48.898;8.308;2022-10-18T10:23:08;101293.81;;;21.14;100.00
15634;BME280;14654;48.898;8.308;2022-10-18T10:25:39;101293.09;;;21.09;100.00
15634;BME280;14654;48.898;8.308;2022-10-18T10:28:12;101295.47;;;21.17;100.00
15634;BME280;14654;48.898;8.308;2022-10-18T10:30:38;101281.19;;;21.23;100.00
15634;BME280;14654;48.898;8.308;2022-10-18T10:33:04;101291.44;;;21.30;100.00
15634;BME280;14654;48.898;8.308;2022-10-18T10:35:38;101286.88;;;21.36;100.00
15634;BME280;14654;48.898;8.308;2022-10-18T10:38:04;101285.94;;;21.37;100.00
15634;BME280;14654;48.898;8.308;2022-10-18T10:40:32;101286.06;;;21.34;100.00
15634;BME280;14654;48.898;8.308;2022-10-18T10:45:33;101286.91;;;21.34;100.00
15634;BME280;14654;48.898;8.308;2022-10-18T10:48:26;101292.47;;;21.26;100.00
15634;BME280;14654;48.898;8.308;2022-10-18T10:50:58;101289.84;;;21.26;100.00
15634;BME280;14654;48.898;8.308;2022-10-18T10:56:00;101297.69;;;21.28;100.00
15634;BME280;14654;48.898;8.308;2022-10-18T10:58:33;101294.44;;;21.21;100.00
15634;BME280;14654;48.898;8.308;2022-10-18T11:01:19;101297.00;;;21.23;100.00
15634;BME280;14654;48.898;8.308;2022-10-18T11:03:50;101297.59;;;21.31;100.00
15634;BME280;14654;48.898;8.308;2022-10-18T11:06:50;101300.75;;;21.39;100.00
15634;BME280;14654;48.898;8.308;2022-10-18T11:09:25;101304.38;;;21.37;100.00
15634;BME280;14654;48.898;8.308;2022-10-18T11:12:04;101301.97;;;21.30;100.00
15634;BME280;14654;48.898;8.308;2022-10-18T11:14:37;101299.44;;;21.27;100.00
15634;BME280;14654;48.898;8.308;2022-10-18T11:25:28;101291.09;;;21.40;100.00
15634;BME280;14654;48.898;8.308;2022-10-18T11:28:10;101296.63;;;21.56;100.00
15634;BME280;14654;48.898;8.308;2022-10-18T11:30:54;101290.66;;;21.74;100.00
15634;BME280;14654;48.898;8.308;2022-10-18T11:36:24;101270.31;;;22.00;100.00
15634;BME280;14654;48.898;8.308;2022-10-18T11:39:05;101282.16;;;22.11;100.00
15634;BME280;14654;48.898;8.308;2022-10-18T11:41:41;101277.50;;;22.17;100.00
15634;BME280;14654;48.898;8.308;2022-10-18T11:44:31;101270.47;;;22.18;100.00
15634;BME280;14654;48.898;8.308;2022-10-18T11:47:15;101268.75;;;22.17;100.00
15634;BME280;14654;48.898;8.308;2022-10-18T11:52:36;101260.22;;;22.10;100.00
15634;BME280;14654;48.898;8.308;2022-10-18T11:55:28;101250.59;;;22.09;100.00
15634;BME280;14654;48.898;8.308;2022-10-18T11:58:16;101247.25;;;22.05;100.00
15634;BME280;14654;48.898;8.308;2022-10-18T12:01:05;101249.13;;;22.02;100.00
15634;BME280;14654;48.898;8.308;2022-10-18T12:04:01;101248.66;;;22.14;100.00
15634;BME280;14654;48.898;8.308;2022-10-18T12:06:32;101240.00;;;22.31;100.00
15634;BME280;14654;48.898;8.308;2022-10-18T12:09:08;101241.66;;;22.55;100.00
15634;BME280;14654;48.898;8.308;2022-10-18T12:11:49;101239.59;;;22.82;100.00
15634;BME280;14654;48.898;8.308;2022-10-18T12:14:34;101251.00;;;23.02;100.00
15634;BME280;14654;48.898;8.308;2022-10-18T12:17:09;101247.81;;;23.14;100.00
15634;BME280;14654;48.898;8.308;2022-10-18T12:19:37;101244.75;;;23.23;100.00
15634;BME280;14654;48.898;8.308;2022-10-18T12:22:34;101246.03;;;23.34;100.00
15634;BME280;14654;48.898;8.308;2022-10-18T12:25:00;101234.94;;;23.44;100.00
15634;BME280;14654;48.898;8.308;2022-10-18T12:27:38;101233.66;;;23.53;100.00
15634;BME280;14654;48.898;8.308;2022-10-18T12:30:40;101237.78;;;23.59;100.00
15634;BME280;14654;48.898;8.308;2022-10-18T12:33:16;101237.13;;;23.54;100.00
15634;BME280;14654;48.898;8.308;2022-10-18T12:38:49;101233.84;;;23.31;100.00
15634;BME280;14654;48.898;8.308;2022-10-18T12:41:24;101232.47;;;23.22;100.00
15634;BME280;14654;48.898;8.308;2022-10-18T12:43:59;101228.38;;;23.15;100.00
15634;BME280;14654;48.898;8.308;2022-10-18T12:46:51;101232.16;;;23.09;100.00
15634;BME280;14654;48.898;8.308;2022-10-18T12:49:31;101234.00;;;23.07;100.00
15634;BME280;14654;48.898;8.308;2022-10-18T12:52:21;101233.09;;;23.08;100.00
15634;BME280;14654;48.898;8.308;2022-10-18T13:11:34;101204.72;;;22.75;100.00
15634;BME280;14654;48.898;8.308;2022-10-18T13:33:12;101209.28;;;22.30;100.00
15634;BME280;14654;48.898;8.308;2022-10-18T14:09:04;101225.03;;;21.68;100.00
15634;BME280;14654;48.898;8.308;2022-10-18T14:11:41;101224.38;;;21.63;100.00
15634;BME280;14654;48.898;8.308;2022-10-18T14:19:43;101225.69;;;21.29;100.00
15634;BME280;14654;48.898;8.308;2022-10-18T14:22:22;101226.59;;;21.28;100.00
15634;BME280;14654;48.898;8.308;2022-10-18T14:24:58;101218.03;;;21.23;100.00
15634;BME280;14654;48.898;8.308;2022-10-18T14:27:28;101225.25;;;21.17;100.00
15634;BME280;14654;48.898;8.308;2022-10-18T14:30:18;101231.59;;;21.12;100.00
15634;BME280;14654;48.898;8.308;2022-10-18T14:32:46;101228.31;;;21.07;100.00
15634;BME280;14654;48.898;8.308;2022-10-18T14:35:26;101235.50;;;21.01;100.00
15634;BME280;14654;48.898;8.308;2022-10-18T14:37:54;101233.09;;;20.95;100.00
15634;BME280;14654;48.898;8.308;2022-10-18T14:40:33;101234.06;;;20.93;100.00
15634;BME280;14654;48.898;8.308;2022-10-18T14:43:20;101241.34;;;20.86;100.00
15634;BME280;14654;48.898;8.308;2022-10-18T14:45:46;101237.16;;;20.80;100.00
15634;BME280;14654;48.898;8.308;2022-10-18T14:48:16;101237.34;;;20.76;100.00
15634;BME280;14654;48.898;8.308;2022-10-18T14:50:47;101232.34;;;20.66;100.00
15634;BME280;14654;48.898;8.308;2022-10-18T14:53:16;101235.16;;;20.62;100.00
15634;BME280;14654;48.898;8.308;2022-10-18T14:55:51;101238.03;;;20.55;100.00
15634;BME280;14654;48.898;8.308;2022-10-18T14:58:17;101231.16;;;20.51;100.00
15634;BME280;14654;48.898;8.308;2022-10-18T15:00:44;101234.88;;;20.46;100.00
15634;BME280;14654;48.898;8.308;2022-10-18T15:03:13;101238.50;;;20.41;100.00
15634;BME280;14654;48.898;8.308;2022-10-18T15:05:59;101228.97;;;20.39;100.00
15634;BME280;14654;48.898;8.308;2022-10-18T15:08:37;101228.25;;;20.34;100.00
15634;BME280;14654;48.898;8.308;2022-10-18T15:11:05;101236.13;;;20.34;100.00
15634;BME280;14654;48.898;8.308;2022-10-18T15:13:31;101228.31;;;20.32;100.00
15634;BME280;14654;48.898;8.308;2022-10-18T15:15:58;101233.63;;;20.31;100.00
15634;BME280;14654;48.898;8.308;2022-10-18T15:18:25;101227.59;;;20.27;100.00